createdAt,value
2022-08-07T00:10:04.723Z,10.33
2022-08-07T00:20:09.613Z,7.83
2022-08-07T00:30:21.557Z,6.73
2022-08-07T00:40:36.706Z,8.83
2022-08-07T00:50:46.273Z,7.90
2022-08-07T01:00:53.614Z,7.50
2022-08-07T01:10:56.697Z,6.20
2022-08-07T01:21:22.774Z,7.47
2022-08-07T01:31:42.748Z,8.63
2022-08-07T01:42:07.261Z,5.83
2022-08-07T01:52:13.528Z,4.00
2022-08-07T02:03:12.296Z,4.03
2022-08-07T02:13:00.106Z,3.83
2022-08-07T02:23:11.717Z,9.50
2022-08-07T02:33:16.121Z,11.00
2022-08-07T02:43:20.765Z,10.40
2022-08-07T02:53:28.575Z,8.40
2022-08-07T03:03:42.206Z,8.87
2022-08-07T03:13:57.715Z,3.93
2022-08-07T03:24:18.943Z,3.93
2022-08-07T03:34:28.390Z,3.90
2022-08-07T03:44:36.440Z,3.80
2022-08-07T03:54:53.904Z,8.37
2022-08-07T04:04:57.954Z,10.10
2022-08-07T04:15:01.406Z,9.20
2022-08-07T04:25:12.738Z,6.00
2022-08-07T04:35:17.626Z,3.73
2022-08-07T04:45:57.733Z,3.30
2022-08-07T04:58:14.765Z,3.63
2022-08-07T05:06:22.749Z,3.40
2022-08-07T05:16:32.962Z,2.70
2022-08-07T05:26:36.554Z,3.87
2022-08-07T05:36:48.840Z,3.47
2022-08-07T05:47:21.362Z,3.70
2022-08-07T05:57:42.849Z,3.50
2022-08-07T06:08:14.321Z,3.20
2022-08-07T06:18:14.614Z,3.17
2022-08-07T06:28:17.965Z,1.97
2022-08-07T06:38:30.353Z,0.65
2022-08-07T06:48:33.098Z,0.85
2022-08-07T06:58:35.951Z,0.73
2022-08-07T07:08:46.838Z,0.70
2022-08-07T07:18:56.144Z,0.70
2022-08-07T07:29:40.717Z,1.20
2022-08-07T07:39:26.939Z,0.95
2022-08-07T07:50:34.517Z,0.98
2022-08-07T08:00:21.195Z,0.88
2022-08-07T08:10:37.622Z,0.95
2022-08-07T08:20:41.233Z,1.00
2022-08-07T08:30:51.422Z,1.20
2022-08-07T08:41:13.134Z,0.80
2022-08-07T08:51:49.279Z,0.90
2022-08-07T09:02:09.650Z,0.93
2022-08-07T09:12:33.235Z,0.82
2022-08-07T09:24:31.600Z,0.80
2022-08-07T09:33:41.300Z,1.02
2022-08-07T09:44:30.013Z,0.73
2022-08-07T09:55:01.324Z,0.57
2022-08-07T10:05:59.277Z,0.63
2022-08-07T10:16:06.079Z,0.85
2022-08-07T10:26:36.960Z,0.77
2022-08-07T10:36:56.582Z,0.82
2022-08-07T10:47:11.898Z,1.10
2022-08-07T10:57:33.952Z,0.90
2022-08-07T11:08:02.579Z,0.90
2022-08-07T11:18:35.179Z,0.80
2022-08-07T11:28:53.506Z,1.00
2022-08-07T11:40:00.770Z,0.73
2022-08-07T11:50:30.289Z,0.98
2022-08-07T12:01:02.278Z,0.95
2022-08-07T12:11:21.834Z,0.82
2022-08-07T12:22:36.925Z,0.88
2022-08-07T12:32:23.375Z,4.75
2022-08-07T12:42:28.539Z,5.00
2022-08-07T12:52:59.646Z,4.15
2022-08-07T13:04:02.385Z,2.83
2022-08-07T13:14:25.997Z,1.60
2022-08-07T13:24:53.921Z,1.60
2022-08-07T13:35:59.576Z,2.20
2022-08-07T13:46:20.895Z,0.50
2022-08-07T13:56:35.655Z,1.00
2022-08-07T14:06:46.055Z,0.88
2022-08-07T14:16:56.329Z,0.77
2022-08-07T14:28:19.939Z,0.85
2022-08-07T14:37:36.218Z,1.40
2022-08-07T14:47:43.227Z,0.95
2022-08-07T14:57:58.311Z,0.80
2022-08-07T15:08:06.947Z,0.98
2022-08-07T15:18:41.725Z,0.80
2022-08-07T15:28:55.555Z,1.13
2022-08-07T15:39:04.594Z,0.80
2022-08-07T15:49:16.206Z,6.72
2022-08-07T15:59:39.585Z,5.93
2022-08-07T16:10:10.668Z,4.40
2022-08-07T16:20:41.864Z,5.53
2022-08-07T16:31:12.916Z,6.45
2022-08-07T16:42:08.778Z,5.18
2022-08-07T16:52:50.748Z,5.50
2022-08-07T17:03:18.021Z,6.67
2022-08-07T17:14:18.937Z,7.57
2022-08-07T17:25:04.427Z,5.50
2022-08-07T17:35:49.903Z,3.47
2022-08-07T17:45:50.463Z,7.70
2022-08-07T17:56:31.382Z,5.87
2022-08-07T18:06:46.039Z,10.17
2022-08-07T18:17:10.766Z,7.13
2022-08-07T18:27:39.259Z,4.77
2022-08-07T18:38:58.088Z,7.50
2022-08-07T18:48:38.190Z,12.50
2022-08-07T18:59:00.185Z,6.23
2022-08-07T19:09:55.596Z,2.83
2022-08-07T19:19:37.383Z,2.47
2022-08-07T19:31:01.706Z,3.00
2022-08-07T19:40:12.804Z,3.27
2022-08-07T19:50:45.277Z,3.70
2022-08-07T20:00:40.574Z,3.37
2022-08-07T20:11:12.049Z,7.47
2022-08-07T20:21:21.982Z,4.67
2022-08-07T20:31:25.730Z,3.80
2022-08-07T20:41:34.041Z,4.00
2022-08-07T20:51:50.445Z,4.40
2022-08-07T21:01:55.484Z,4.47
2022-08-07T21:12:08.102Z,4.27
2022-08-07T21:22:19.487Z,4.23
2022-08-07T21:32:47.290Z,4.30
2022-08-07T21:43:06.578Z,3.90
2022-08-07T21:53:16.316Z,3.17
2022-08-07T22:03:31.243Z,5.00
2022-08-07T22:13:50.454Z,4.93
2022-08-07T22:24:03.618Z,4.93
2022-08-07T22:34:12.907Z,4.60
2022-08-07T22:44:22.703Z,4.60
2022-08-07T22:54:51.373Z,10.90
2022-08-07T23:06:07.291Z,9.03
2022-08-07T23:16:39.222Z,7.53
2022-08-07T23:27:01.448Z,7.53
2022-08-07T23:37:23.037Z,10.83
2022-08-07T23:47:42.135Z,5.10
2022-08-07T23:58:04.194Z,4.20
